createdAt,value
2022-12-07T00:01:43.022Z,8.41
2022-12-07T00:04:12.683Z,8.37
2022-12-07T00:06:41.988Z,8.36
2022-12-07T00:09:12.029Z,8.32
2022-12-07T00:11:38.864Z,8.31
2022-12-07T00:14:08.282Z,8.29
2022-12-07T00:16:36.437Z,8.29
2022-12-07T00:19:04.241Z,8.28
2022-12-07T00:21:33.309Z,8.26
2022-12-07T00:24:00.826Z,8.23
2022-12-07T00:26:29.751Z,8.22
2022-12-07T00:29:00.940Z,8.16
2022-12-07T00:31:29.776Z,8.10
2022-12-07T00:33:58.326Z,8.05
2022-12-07T00:36:27.306Z,8.00
2022-12-07T00:38:55.563Z,7.95
2022-12-07T00:41:24.605Z,7.90
2022-12-07T00:43:51.753Z,7.88
2022-12-07T00:46:19.844Z,7.85
2022-12-07T00:48:48.169Z,7.81
2022-12-07T00:51:17.213Z,7.76
2022-12-07T00:53:43.891Z,7.69
2022-12-07T00:56:16.340Z,7.63
2022-12-07T00:58:43.017Z,7.58
2022-12-07T01:01:11.386Z,7.53
2022-12-07T01:03:38.891Z,7.50
2022-12-07T01:06:06.024Z,7.46
2022-12-07T01:08:33.069Z,7.44
2022-12-07T01:11:05.794Z,7.44
2022-12-07T01:13:33.867Z,7.44
2022-12-07T01:16:02.423Z,7.47
2022-12-07T01:18:30.459Z,7.49
2022-12-07T01:21:12.888Z,7.51
2022-12-07T01:23:39.994Z,7.52
2022-12-07T01:26:12.193Z,7.55
2022-12-07T01:28:39.283Z,7.57
2022-12-07T01:31:18.230Z,7.56
2022-12-07T01:33:46.838Z,7.57
2022-12-07T01:36:19.848Z,7.57
2022-12-07T01:38:47.907Z,7.58
2022-12-07T01:41:16.186Z,7.58
2022-12-07T01:44:16.459Z,7.55
2022-12-07T01:46:48.926Z,7.56
2022-12-07T01:49:24.060Z,7.54
2022-12-07T01:51:56.019Z,7.55
2022-12-07T01:54:23.144Z,7.54
2022-12-07T01:56:53.676Z,7.53
2022-12-07T01:59:22.728Z,7.50
2022-12-07T02:01:49.425Z,7.46
2022-12-07T02:04:16.145Z,7.42
2022-12-07T02:06:44.129Z,7.39
2022-12-07T02:09:10.625Z,7.34
2022-12-07T02:11:37.242Z,7.29
2022-12-07T02:14:03.811Z,7.26
2022-12-07T02:17:02.220Z,7.24
2022-12-07T02:19:46.896Z,7.24
2022-12-07T02:22:39.148Z,7.20
2022-12-07T02:25:39.267Z,7.13
2022-12-07T02:28:26.438Z,7.07
2022-12-07T02:30:55.681Z,7.05
2022-12-07T02:33:44.377Z,7.00
2022-12-07T02:36:22.851Z,6.99
2022-12-07T02:39:01.944Z,7.00
2022-12-07T02:41:44.643Z,7.01
2022-12-07T02:44:18.546Z,7.01
2022-12-07T02:46:54.807Z,7.03
2022-12-07T02:49:34.400Z,7.04
2022-12-07T02:52:01.228Z,7.05
2022-12-07T02:54:27.838Z,7.06
2022-12-07T02:57:12.619Z,7.04
2022-12-07T03:00:10.256Z,7.03
2022-12-07T03:02:47.950Z,7.03
2022-12-07T03:05:42.323Z,7.00
2022-12-07T03:08:21.627Z,7.00
2022-12-07T03:11:03.784Z,6.96
2022-12-07T03:13:33.304Z,6.92
2022-12-07T03:16:14.032Z,6.92
2022-12-07T03:19:02.952Z,6.94
2022-12-07T03:21:40.735Z,6.97
2022-12-07T03:24:34.728Z,7.00
2022-12-07T03:27:07.618Z,7.03
2022-12-07T03:29:41.484Z,7.03
2022-12-07T03:32:35.033Z,7.03
2022-12-07T03:35:10.406Z,7.05
2022-12-07T03:37:43.206Z,7.04
2022-12-07T03:40:47.126Z,7.04
2022-12-07T03:43:13.735Z,7.03
2022-12-07T03:45:48.739Z,7.03
2022-12-07T03:48:25.155Z,7.03
2022-12-07T03:51:04.588Z,7.03
2022-12-07T03:53:55.735Z,7.01
2022-12-07T03:56:23.340Z,7.03
2022-12-07T03:58:50.207Z,7.03
2022-12-07T04:01:19.429Z,7.03
2022-12-07T04:03:46.532Z,7.04
2022-12-07T04:06:13.348Z,7.07
2022-12-07T04:08:39.864Z,7.08
2022-12-07T04:11:06.344Z,7.09
2022-12-07T04:13:52.814Z,7.10
2022-12-07T04:16:19.394Z,7.14
2022-12-07T04:18:46.188Z,7.16
2022-12-07T04:21:12.684Z,7.18
2022-12-07T04:23:39.192Z,7.21
2022-12-07T04:26:11.923Z,7.26
2022-12-07T04:28:38.474Z,7.29
2022-12-07T04:31:05.192Z,7.33
2022-12-07T04:33:31.807Z,7.35
2022-12-07T04:35:58.328Z,7.38
2022-12-07T04:38:24.854Z,7.37
2022-12-07T04:40:51.331Z,7.37
2022-12-07T04:43:17.896Z,7.38
2022-12-07T04:45:48.844Z,7.39
2022-12-07T04:48:15.780Z,7.42
2022-12-07T04:50:46.206Z,7.44
2022-12-07T04:53:13.093Z,7.50
2022-12-07T04:55:39.601Z,7.53
2022-12-07T04:58:06.130Z,7.55
2022-12-07T05:00:32.755Z,7.57
2022-12-07T05:02:59.355Z,7.57
2022-12-07T05:05:25.919Z,7.58
2022-12-07T05:07:52.530Z,7.56
2022-12-07T05:10:19.157Z,7.55
2022-12-07T05:12:46.794Z,7.53
2022-12-07T05:15:14.467Z,7.51
2022-12-07T05:17:41.109Z,7.45
2022-12-07T05:20:08.890Z,7.40
2022-12-07T05:22:35.676Z,7.36
2022-12-07T05:25:02.452Z,7.33
2022-12-07T05:27:28.907Z,7.31
2022-12-07T05:29:55.378Z,7.29
2022-12-07T05:32:21.944Z,7.25
2022-12-07T05:34:48.439Z,7.21
2022-12-07T05:37:14.957Z,7.18
2022-12-07T05:39:43.740Z,7.14
2022-12-07T05:42:14.866Z,7.13
2022-12-07T05:44:43.480Z,7.09
2022-12-07T05:47:10.734Z,7.06
2022-12-07T05:49:37.265Z,7.01
2022-12-07T05:52:04.101Z,6.99
2022-12-07T05:54:30.993Z,6.97
2022-12-07T05:56:57.682Z,6.96
2022-12-07T05:59:24.826Z,6.95
2022-12-07T06:01:51.499Z,6.93
2022-12-07T06:04:18.364Z,6.92
2022-12-07T06:06:45.001Z,6.91
2022-12-07T06:09:11.831Z,6.89
2022-12-07T06:11:56.733Z,6.87
2022-12-07T06:14:23.210Z,6.82
2022-12-07T06:16:49.870Z,6.79
2022-12-07T06:19:16.947Z,6.78
2022-12-07T06:21:43.807Z,6.77
2022-12-07T06:24:12.406Z,6.77
2022-12-07T06:26:39.459Z,6.78
2022-12-07T06:29:06.207Z,6.80
2022-12-07T06:31:33.073Z,6.81
2022-12-07T06:34:04.633Z,6.80
2022-12-07T06:36:31.869Z,6.80
2022-12-07T06:38:58.851Z,6.81
2022-12-07T06:41:25.631Z,6.80
2022-12-07T06:43:56.041Z,6.79
2022-12-07T06:46:23.753Z,6.74
2022-12-07T06:48:50.815Z,6.70
2022-12-07T06:51:17.837Z,6.69
2022-12-07T06:53:44.422Z,6.68
2022-12-07T06:56:11.136Z,6.66
2022-12-07T06:58:38.784Z,6.65
2022-12-07T07:01:16.114Z,6.64
2022-12-07T07:03:43.096Z,6.62
2022-12-07T07:06:10.320Z,6.60
2022-12-07T07:08:37.497Z,6.58
2022-12-07T07:11:04.932Z,6.54
2022-12-07T07:13:31.620Z,6.53
2022-12-07T07:15:58.096Z,6.52
2022-12-07T07:18:25.058Z,6.51
2022-12-07T07:20:53.051Z,6.50
2022-12-07T07:23:20.353Z,6.50
2022-12-07T07:25:47.379Z,6.47
2022-12-07T07:28:14.245Z,6.45
2022-12-07T07:30:40.881Z,6.41
2022-12-07T07:33:07.532Z,6.40
2022-12-07T07:35:34.976Z,6.39
2022-12-07T07:38:02.087Z,6.37
2022-12-07T07:40:32.575Z,6.36
2022-12-07T07:42:59.412Z,6.34
2022-12-07T07:45:27.690Z,6.35
2022-12-07T07:47:54.411Z,6.35
2022-12-07T07:50:21.959Z,6.34
2022-12-07T07:52:48.751Z,6.34
2022-12-07T07:55:15.415Z,6.34
2022-12-07T07:57:42.232Z,6.33
2022-12-07T08:00:14.283Z,6.32
2022-12-07T08:02:41.711Z,6.33
2022-12-07T08:05:08.564Z,6.33
2022-12-07T08:07:35.189Z,6.33
2022-12-07T08:10:02.098Z,6.33
2022-12-07T08:12:29.001Z,6.33
2022-12-07T08:14:55.617Z,6.33
2022-12-07T08:17:22.300Z,6.34
2022-12-07T08:19:48.820Z,6.36
2022-12-07T08:22:15.332Z,6.41
2022-12-07T08:24:41.856Z,6.48
2022-12-07T08:27:08.517Z,6.56
2022-12-07T08:29:35.038Z,6.65
2022-12-07T08:32:06.614Z,6.71
2022-12-07T08:34:36.713Z,6.78
2022-12-07T08:37:03.226Z,6.82
2022-12-07T08:39:32.020Z,6.84
2022-12-07T08:41:59.333Z,6.88
2022-12-07T08:44:25.994Z,6.94
2022-12-07T08:46:58.107Z,7.01
2022-12-07T08:49:34.145Z,7.12
2022-12-07T08:52:00.806Z,7.22
2022-12-07T08:54:29.505Z,7.32
2022-12-07T08:56:59.750Z,7.40
2022-12-07T08:59:27.947Z,7.48
2022-12-07T09:01:54.611Z,7.55
2022-12-07T09:04:21.731Z,7.61
2022-12-07T09:06:48.791Z,7.68
2022-12-07T09:09:16.024Z,7.73
2022-12-07T09:11:42.651Z,7.79
2022-12-07T09:14:09.175Z,7.84
2022-12-07T09:16:35.859Z,7.90
2022-12-07T09:19:02.666Z,7.95
2022-12-07T09:21:29.231Z,8.01
2022-12-07T09:23:55.755Z,8.08
2022-12-07T09:26:22.506Z,8.16
2022-12-07T09:28:49.047Z,8.22
2022-12-07T09:31:24.694Z,8.28
2022-12-07T09:34:00.487Z,8.37
2022-12-07T09:36:28.793Z,8.42
2022-12-07T09:38:55.410Z,8.49
2022-12-07T09:41:24.347Z,8.55
2022-12-07T09:43:51.096Z,8.61
2022-12-07T09:46:21.500Z,8.66
2022-12-07T09:48:50.031Z,8.70
2022-12-07T09:51:25.796Z,8.72
2022-12-07T09:53:55.180Z,8.74
2022-12-07T09:56:23.584Z,8.77
2022-12-07T09:58:51.112Z,8.85
2022-12-07T10:01:22.452Z,8.92
2022-12-07T10:04:07.762Z,8.98
2022-12-07T10:06:34.386Z,9.04
2022-12-07T10:09:00.844Z,9.12
2022-12-07T10:11:27.494Z,9.18
2022-12-07T10:13:55.214Z,9.30
2022-12-07T10:16:40.541Z,9.39
2022-12-07T10:19:32.523Z,9.51
2022-12-07T10:22:15.630Z,9.63
2022-12-07T10:24:43.917Z,9.70
2022-12-07T10:27:36.502Z,9.77
2022-12-07T10:30:08.747Z,9.86
2022-12-07T10:32:37.210Z,9.93
2022-12-07T10:35:22.529Z,9.99
2022-12-07T10:37:50.579Z,10.06
2022-12-07T10:40:37.885Z,10.08
2022-12-07T10:43:14.475Z,10.14
2022-12-07T10:46:15.351Z,10.16
2022-12-07T10:48:57.016Z,10.18
2022-12-07T10:51:49.009Z,10.18
2022-12-07T10:54:50.703Z,10.19
2022-12-07T10:57:23.053Z,10.19
2022-12-07T10:59:52.272Z,10.18
2022-12-07T11:02:55.650Z,10.17
2022-12-07T11:05:28.646Z,10.21
2022-12-07T11:08:10.745Z,10.21
2022-12-07T11:10:44.287Z,10.25
2022-12-07T11:13:43.499Z,10.24
2022-12-07T11:16:12.699Z,10.27
2022-12-07T11:19:04.610Z,10.27
2022-12-07T11:21:59.181Z,10.29
2022-12-07T11:24:33.720Z,10.32
2022-12-07T11:27:14.224Z,10.33
2022-12-07T11:29:56.734Z,10.35
2022-12-07T11:32:34.984Z,10.37
2022-12-07T11:35:42.063Z,10.39
2022-12-07T11:38:15.584Z,10.42
2022-12-07T11:40:47.540Z,10.43
2022-12-07T11:43:19.993Z,10.43
2022-12-07T11:45:55.649Z,10.41
2022-12-07T11:48:57.489Z,10.45
2022-12-07T11:51:29.029Z,10.49
2022-12-07T11:54:20.829Z,10.47
2022-12-07T11:56:51.458Z,10.47
2022-12-07T11:59:29.692Z,10.48
2022-12-07T12:02:08.997Z,10.49
2022-12-07T12:04:44.545Z,10.53
2022-12-07T12:10:25.711Z,10.68
2022-12-07T12:16:20.344Z,10.75
2022-12-07T12:18:58.688Z,10.77
2022-12-07T12:21:30.714Z,10.76
2022-12-07T12:24:06.169Z,10.77
2022-12-07T12:26:34.145Z,10.81
2022-12-07T12:29:09.710Z,10.86
2022-12-07T12:31:40.328Z,10.81
2022-12-07T12:34:46.628Z,10.77
2022-12-07T12:37:34.314Z,10.75
2022-12-07T12:40:16.074Z,10.74
2022-12-07T12:42:56.915Z,10.72
2022-12-07T12:45:33.660Z,10.73
2022-12-07T12:48:02.938Z,10.71
2022-12-07T12:50:38.387Z,10.68
2022-12-07T12:53:04.774Z,10.71
2022-12-07T12:56:04.289Z,10.76
2022-12-07T12:58:34.026Z,10.76
2022-12-07T13:01:28.257Z,10.70
2022-12-07T13:03:57.099Z,10.66
2022-12-07T13:06:27.279Z,10.62
2022-12-07T13:09:00.424Z,10.61
2022-12-07T13:11:46.323Z,10.60
2022-12-07T13:14:33.855Z,10.64
2022-12-07T13:17:00.559Z,10.70
2022-12-07T13:19:53.012Z,10.70
2022-12-07T13:22:31.635Z,10.72
2022-12-07T13:25:03.575Z,10.75
2022-12-07T13:27:31.420Z,10.77
2022-12-07T13:29:59.420Z,10.78
2022-12-07T13:32:29.357Z,10.75
2022-12-07T13:34:56.047Z,10.76
2022-12-07T13:37:37.933Z,10.75
2022-12-07T13:40:22.943Z,10.77
2022-12-07T13:42:58.298Z,10.77
2022-12-07T13:45:49.083Z,10.77
2022-12-07T13:48:42.872Z,10.78
2022-12-07T13:51:26.852Z,10.77
2022-12-07T13:54:10.675Z,10.77
2022-12-07T13:56:37.506Z,10.80
2022-12-07T13:59:07.051Z,10.78
2022-12-07T14:01:34.134Z,10.79
2022-12-07T14:04:33.991Z,10.78
2022-12-07T14:07:02.786Z,10.80
2022-12-07T14:09:31.081Z,10.79
2022-12-07T14:11:58.762Z,10.80
2022-12-07T14:14:36.251Z,10.82
2022-12-07T14:17:19.246Z,10.85
2022-12-07T14:19:58.332Z,10.85
2022-12-07T14:22:36.119Z,10.84
2022-12-07T14:25:14.874Z,10.84
2022-12-07T14:27:50.973Z,10.85
2022-12-07T14:30:19.876Z,10.83
2022-12-07T14:32:55.719Z,10.82
2022-12-07T14:35:22.438Z,10.80
2022-12-07T14:37:50.160Z,10.77
2022-12-07T14:40:22.413Z,10.74
2022-12-07T14:42:52.469Z,10.70
2022-12-07T14:45:21.712Z,10.68
2022-12-07T14:50:38.850Z,10.60
2022-12-07T14:55:49.048Z,10.48
2022-12-07T14:58:17.327Z,10.33
2022-12-07T15:00:44.820Z,10.21
2022-12-07T15:03:14.146Z,10.09
2022-12-07T15:05:42.012Z,10.01
2022-12-07T15:08:13.364Z,9.96
2022-12-07T15:10:41.091Z,9.94
2022-12-07T15:13:26.702Z,9.92
2022-12-07T15:15:55.139Z,9.89
2022-12-07T15:18:23.958Z,9.86
2022-12-07T15:20:51.033Z,9.83
2022-12-07T15:23:17.500Z,9.80
2022-12-07T15:25:45.597Z,9.77
2022-12-07T15:28:12.995Z,9.74
2022-12-07T15:30:41.154Z,9.69
2022-12-07T15:33:07.815Z,9.65
2022-12-07T15:35:34.318Z,9.60
2022-12-07T15:38:00.791Z,9.54
2022-12-07T15:40:27.248Z,9.49
2022-12-07T15:42:53.775Z,9.47
2022-12-07T15:45:20.296Z,9.45
2022-12-07T15:48:26.230Z,9.41
2022-12-07T15:50:33.283Z,9.37
2022-12-07T15:52:59.866Z,9.35
2022-12-07T15:55:26.423Z,9.31
2022-12-07T15:57:52.913Z,9.27
2022-12-07T16:00:20.063Z,9.23
2022-12-07T16:02:46.535Z,9.20
2022-12-07T16:05:13.077Z,9.17
2022-12-07T16:07:39.613Z,9.15
2022-12-07T16:10:06.914Z,9.11
2022-12-07T16:12:33.450Z,9.11
2022-12-07T16:15:00.124Z,9.09
2022-12-07T16:17:26.779Z,9.08
2022-12-07T16:19:54.415Z,9.06
2022-12-07T16:22:20.900Z,9.03
2022-12-07T16:24:47.462Z,9.01
2022-12-07T16:27:13.970Z,8.98
2022-12-07T16:29:40.632Z,8.96
2022-12-07T16:32:07.199Z,8.96
2022-12-07T16:34:33.772Z,8.94
2022-12-07T16:37:04.893Z,8.92
2022-12-07T16:39:33.297Z,8.90
2022-12-07T16:41:59.788Z,8.87
2022-12-07T16:44:26.349Z,8.84
2022-12-07T16:46:52.939Z,8.80
2022-12-07T16:49:20.067Z,8.78
2022-12-07T16:51:48.215Z,8.75
2022-12-07T16:54:14.869Z,8.73
2022-12-07T16:56:42.276Z,8.70
2022-12-07T16:59:09.508Z,8.69
2022-12-07T17:01:36.941Z,8.69
2022-12-07T17:04:05.245Z,8.68
2022-12-07T17:06:32.431Z,8.67
2022-12-07T17:08:59.663Z,8.68
2022-12-07T17:11:29.412Z,8.70
2022-12-07T17:14:14.982Z,8.72
2022-12-07T17:16:43.022Z,8.73
2022-12-07T17:19:12.708Z,8.73
2022-12-07T17:21:39.361Z,8.73
2022-12-07T17:24:09.389Z,8.75
2022-12-07T17:26:36.391Z,8.73
2022-12-07T17:29:05.256Z,8.74
2022-12-07T17:31:33.387Z,8.75
2022-12-07T17:34:00.386Z,8.75
2022-12-07T17:36:29.276Z,8.75
2022-12-07T17:38:55.972Z,8.75
2022-12-07T17:41:48.349Z,8.74
2022-12-07T17:44:17.457Z,8.74
2022-12-07T17:46:44.839Z,8.72
2022-12-07T17:49:11.987Z,8.72
2022-12-07T17:51:57.273Z,8.70
2022-12-07T17:54:24.025Z,8.70
2022-12-07T17:56:50.812Z,8.71
2022-12-07T17:59:17.901Z,8.70
2022-12-07T18:01:45.251Z,8.70
2022-12-07T18:04:12.170Z,8.70
2022-12-07T18:06:39.335Z,8.69
2022-12-07T18:09:07.404Z,8.68
2022-12-07T18:11:34.408Z,8.67
2022-12-07T18:14:01.010Z,8.64
2022-12-07T18:16:30.209Z,8.63
2022-12-07T18:19:01.286Z,8.61
2022-12-07T18:21:30.905Z,8.62
2022-12-07T18:24:02.351Z,8.62
2022-12-07T18:26:31.485Z,8.61
2022-12-07T18:29:01.633Z,8.61
2022-12-07T18:31:29.170Z,8.63
2022-12-07T18:33:56.729Z,8.62
2022-12-07T18:36:23.857Z,8.62
2022-12-07T18:38:50.683Z,8.63
2022-12-07T18:41:17.288Z,8.63
2022-12-07T18:43:44.267Z,8.62
2022-12-07T18:46:15.310Z,8.63
2022-12-07T18:48:41.997Z,8.61
2022-12-07T18:51:10.835Z,8.60
2022-12-07T18:53:37.695Z,8.59
2022-12-07T18:56:19.428Z,8.58
2022-12-07T18:59:23.244Z,8.57
2022-12-07T19:01:53.604Z,8.59
2022-12-07T19:04:20.883Z,8.59
2022-12-07T19:06:48.569Z,8.59
2022-12-07T19:09:15.492Z,8.60
2022-12-07T19:11:52.069Z,8.62
2022-12-07T19:14:31.277Z,8.64
2022-12-07T19:17:02.102Z,8.64
2022-12-07T19:19:34.654Z,8.64
2022-12-07T19:22:02.129Z,8.66
2022-12-07T19:24:29.520Z,8.65
2022-12-07T19:26:56.476Z,8.64
2022-12-07T19:29:23.074Z,8.62
2022-12-07T19:31:52.297Z,8.61
2022-12-07T19:34:19.205Z,8.61
2022-12-07T19:36:47.254Z,8.61
2022-12-07T19:39:15.749Z,8.59
2022-12-07T19:41:52.336Z,8.57
2022-12-07T19:44:29.854Z,8.56
2022-12-07T19:47:04.744Z,8.54
2022-12-07T19:49:33.061Z,8.52
2022-12-07T19:52:04.889Z,8.53
2022-12-07T19:54:33.221Z,8.50
2022-12-07T19:56:59.813Z,8.48
2022-12-07T19:59:29.326Z,8.46
2022-12-07T20:01:56.544Z,8.44
2022-12-07T20:04:28.715Z,8.42
2022-12-07T20:06:58.504Z,8.41
2022-12-07T20:09:28.782Z,8.43
2022-12-07T20:12:14.208Z,8.46
2022-12-07T20:14:40.784Z,8.49
2022-12-07T20:17:07.608Z,8.51
2022-12-07T20:19:37.502Z,8.52
2022-12-07T20:22:04.452Z,8.55
2022-12-07T20:24:34.657Z,8.56
2022-12-07T20:27:01.257Z,8.59
2022-12-07T20:29:27.740Z,8.65
2022-12-07T20:31:54.804Z,8.72
2022-12-07T20:34:22.259Z,8.79
2022-12-07T20:36:48.784Z,8.85
2022-12-07T20:39:15.504Z,8.93
2022-12-07T20:42:00.658Z,8.99
2022-12-07T20:44:27.376Z,9.05
2022-12-07T20:46:54.623Z,9.11
2022-12-07T20:49:21.556Z,9.15
2022-12-07T20:51:48.113Z,9.19
2022-12-07T20:54:14.963Z,9.22
2022-12-07T20:56:41.952Z,9.25
2022-12-07T20:59:12.996Z,9.29
2022-12-07T21:01:40.016Z,9.32
2022-12-07T21:04:06.716Z,9.33
2022-12-07T21:06:33.323Z,9.32
2022-12-07T21:09:00.734Z,9.31
2022-12-07T21:11:29.652Z,9.31
2022-12-07T21:13:56.300Z,9.29
2022-12-07T21:16:27.203Z,9.29
2022-12-07T21:18:55.223Z,9.27
2022-12-07T21:21:21.869Z,9.28
2022-12-07T21:23:50.738Z,9.30
2022-12-07T21:26:20.461Z,9.31
2022-12-07T21:28:48.098Z,9.30
2022-12-07T21:31:15.299Z,9.29
2022-12-07T21:33:44.166Z,9.27
2022-12-07T21:36:12.805Z,9.24
2022-12-07T21:38:39.411Z,9.23
2022-12-07T21:41:14.144Z,9.21
2022-12-07T21:43:41.185Z,9.19
2022-12-07T21:46:07.829Z,9.17
2022-12-07T21:48:34.549Z,9.14
2022-12-07T21:51:14.029Z,9.13
2022-12-07T21:53:42.277Z,9.11
2022-12-07T21:56:21.234Z,9.09
2022-12-07T21:58:49.289Z,9.05
2022-12-07T22:01:27.514Z,9.04
2022-12-07T22:03:54.504Z,9.01
2022-12-07T22:06:25.994Z,8.97
2022-12-07T22:08:53.858Z,8.95
2022-12-07T22:11:20.731Z,8.93
2022-12-07T22:14:10.182Z,8.90
2022-12-07T22:16:37.078Z,8.87
2022-12-07T22:19:03.722Z,8.85
2022-12-07T22:21:30.822Z,8.83
2022-12-07T22:23:57.596Z,8.81
2022-12-07T22:26:24.814Z,8.80
2022-12-07T22:28:51.760Z,8.78
2022-12-07T22:31:19.827Z,8.76
2022-12-07T22:33:46.971Z,8.75
2022-12-07T22:36:13.715Z,8.73
2022-12-07T22:38:41.968Z,8.71
2022-12-07T22:41:09.847Z,8.69
2022-12-07T22:43:36.426Z,8.66
2022-12-07T22:46:03.622Z,8.64
2022-12-07T22:48:30.225Z,8.60
2022-12-07T22:51:01.094Z,8.57
2022-12-07T22:53:27.836Z,8.55
2022-12-07T22:55:54.514Z,8.55
2022-12-07T22:58:21.135Z,8.55
2022-12-07T23:00:53.850Z,8.55
2022-12-07T23:03:20.526Z,8.55
2022-12-07T23:05:49.160Z,8.56
2022-12-07T23:08:16.646Z,8.56
2022-12-07T23:10:48.164Z,8.57
2022-12-07T23:13:32.537Z,8.55
2022-12-07T23:16:15.181Z,8.52
2022-12-07T23:18:42.795Z,8.51
2022-12-07T23:21:09.467Z,8.50
2022-12-07T23:23:35.970Z,8.50
2022-12-07T23:26:08.114Z,8.49
2022-12-07T23:28:35.577Z,8.50
2022-12-07T23:31:07.193Z,8.49
2022-12-07T23:33:33.884Z,8.49
2022-12-07T23:36:11.630Z,8.47
2022-12-07T23:38:39.386Z,8.47
2022-12-07T23:41:12.203Z,8.45
2022-12-07T23:43:39.467Z,8.44
2022-12-07T23:46:11.631Z,8.40
2022-12-07T23:48:38.952Z,8.38
2022-12-07T23:51:06.564Z,8.35
2022-12-07T23:53:34.578Z,8.33
2022-12-07T23:56:01.206Z,8.32
2022-12-07T23:58:27.892Z,8.29
